createdAt,value
2023-01-28T00:01:12.127Z,99895.97
2023-01-28T00:03:40.304Z,99896.97
2023-01-28T00:06:10.467Z,99891.94
2023-01-28T00:08:37.556Z,99895.16
2023-01-28T00:11:06.930Z,99892.66
2023-01-28T00:13:34.661Z,99891.13
2023-01-28T00:16:05.072Z,99891.28
2023-01-28T00:18:33.136Z,99890.97
2023-01-28T00:21:08.058Z,99883.59
2023-01-28T00:23:35.694Z,99890.00
2023-01-28T00:26:05.095Z,99896.13
2023-01-28T00:28:32.485Z,99890.00
2023-01-28T00:30:59.545Z,99891.41
2023-01-28T00:33:29.490Z,99894.03
2023-01-28T00:36:03.676Z,99891.09
2023-01-28T00:38:39.750Z,99895.69
2023-01-28T00:41:18.023Z,99896.13
2023-01-28T00:46:32.155Z,99898.50
2023-01-28T00:49:15.215Z,99896.81
2023-01-28T00:51:46.979Z,99900.28
2023-01-28T00:54:19.734Z,99901.41
2023-01-28T00:56:51.900Z,99902.38
2023-01-28T00:59:21.548Z,99903.63
2023-01-28T01:01:53.881Z,99902.69
2023-01-28T01:04:28.580Z,99903.50
2023-01-28T01:06:58.385Z,99906.28
2023-01-28T01:09:32.492Z,99908.91
2023-01-28T01:12:04.158Z,99908.50
2023-01-28T01:14:34.843Z,99914.06
2023-01-28T01:17:12.097Z,99905.31
2023-01-28T01:19:44.679Z,99907.53
2023-01-28T01:22:21.640Z,99909.50
2023-01-28T01:24:49.801Z,99902.66
2023-01-28T01:27:19.638Z,99905.31
2023-01-28T01:29:46.562Z,99901.25
2023-01-28T01:32:13.505Z,99903.91
2023-01-28T01:34:40.789Z,99900.84
2023-01-28T01:37:08.972Z,99902.53
2023-01-28T01:39:36.501Z,99897.78
2023-01-28T01:42:03.702Z,99905.59
2023-01-28T01:44:57.285Z,99896.41
2023-01-28T01:47:44.366Z,99902.09
2023-01-28T01:50:33.111Z,99903.34
2023-01-28T01:53:13.403Z,99892.34
2023-01-28T01:55:44.024Z,99897.91
2023-01-28T01:58:14.006Z,99889.56
2023-01-28T02:00:42.257Z,99894.56
2023-01-28T02:03:10.332Z,99892.22
2023-01-28T02:05:37.710Z,99893.03
2023-01-28T02:08:23.314Z,99893.31
2023-01-28T02:10:54.296Z,99894.44
2023-01-28T02:13:24.877Z,99900.25
2023-01-28T02:15:52.276Z,99902.75
2023-01-28T02:18:20.081Z,99903.31
2023-01-28T02:20:47.087Z,99905.53
2023-01-28T02:23:35.647Z,99908.63
2023-01-28T02:26:05.607Z,99907.09
2023-01-28T02:28:53.169Z,99906.84
2023-01-28T02:31:25.465Z,99910.44
2023-01-28T02:34:05.046Z,99914.59
2023-01-28T02:36:42.102Z,99911.13
2023-01-28T02:39:19.345Z,99914.34
2023-01-28T02:41:54.009Z,99920.72
2023-01-28T02:44:22.182Z,99917.50
2023-01-28T02:47:10.213Z,99921.13
2023-01-28T02:49:46.653Z,99923.63
2023-01-28T02:52:51.080Z,99926.41
2023-01-28T02:55:23.371Z,99928.03
2023-01-28T02:58:27.251Z,99936.94
2023-01-28T03:01:01.860Z,99929.16
2023-01-28T03:03:52.643Z,99937.66
2023-01-28T03:06:23.867Z,99935.56
2023-01-28T03:09:13.249Z,99934.16
2023-01-28T03:12:06.963Z,99943.06
2023-01-28T03:14:54.211Z,99936.13
2023-01-28T03:18:06.259Z,99937.22
2023-01-28T03:21:09.530Z,99937.47
2023-01-28T03:24:07.596Z,99938.31
2023-01-28T03:27:00.503Z,99940.25
2023-01-28T03:29:49.140Z,99949.56
2023-01-28T03:32:39.655Z,99948.31
2023-01-28T03:35:25.874Z,99948.59
2023-01-28T03:37:52.999Z,99959.97
2023-01-28T03:40:24.068Z,99950.66
2023-01-28T03:42:52.526Z,99945.25
2023-01-28T03:45:33.899Z,99945.25
2023-01-28T03:48:03.943Z,99948.19
2023-01-28T03:50:31.540Z,99941.09
2023-01-28T03:53:14.970Z,99953.19
2023-01-28T03:55:49.766Z,99947.19
2023-01-28T03:58:18.298Z,99945.53
2023-01-28T04:00:46.303Z,99941.09
2023-01-28T04:03:16.737Z,99939.28
2023-01-28T04:06:05.323Z,99943.84
2023-01-28T04:08:59.397Z,99943.41
2023-01-28T04:11:39.169Z,99943.69
2023-01-28T04:14:07.801Z,99942.75
2023-01-28T04:16:49.313Z,99945.38
2023-01-28T04:19:17.067Z,99950.91
2023-01-28T04:21:45.177Z,99942.69
2023-01-28T04:24:12.239Z,99948.53
2023-01-28T04:26:39.900Z,99949.63
2023-01-28T04:29:07.024Z,99948.69
2023-01-28T04:31:35.880Z,99947.38
2023-01-28T04:34:17.469Z,99949.34
2023-01-28T04:36:52.529Z,99957.84
2023-01-28T04:39:42.503Z,99960.88
2023-01-28T04:42:16.413Z,99963.66
2023-01-28T04:45:00.990Z,99965.97
2023-01-28T04:47:57.732Z,99958.19
2023-01-28T04:50:51.056Z,99963.06
2023-01-28T04:53:35.242Z,99958.63
2023-01-28T04:56:07.831Z,99963.06
2023-01-28T04:58:36.323Z,99962.63
2023-01-28T05:01:06.942Z,99956.38
2023-01-28T05:03:36.447Z,99962.63
2023-01-28T05:06:05.831Z,99962.50
2023-01-28T05:08:42.567Z,99966.81
2023-01-28T05:11:09.755Z,99970.16
2023-01-28T05:13:36.760Z,99963.19
2023-01-28T05:16:06.393Z,99969.06
2023-01-28T05:18:33.425Z,99966.91
2023-01-28T05:21:08.023Z,99970.66
2023-01-28T05:23:37.089Z,99973.44
2023-01-28T05:26:04.236Z,99976.81
2023-01-28T05:28:31.390Z,99976.66
2023-01-28T05:31:03.672Z,99980.00
2023-01-28T05:33:30.942Z,99979.88
2023-01-28T05:35:58.419Z,99972.63
2023-01-28T05:38:25.512Z,99982.91
2023-01-28T05:40:52.501Z,99982.06
2023-01-28T05:43:19.464Z,99965.38
2023-01-28T05:46:12.426Z,99976.53
2023-01-28T05:48:57.576Z,99982.31
2023-01-28T05:51:49.521Z,99981.75
2023-01-28T05:54:20.089Z,99983.19
2023-01-28T05:56:48.789Z,99973.97
2023-01-28T05:59:17.164Z,99983.41
2023-01-28T06:01:46.224Z,99976.47
2023-01-28T06:04:13.371Z,99985.22
2023-01-28T06:06:40.448Z,99985.38
2023-01-28T06:09:07.651Z,99984.28
2023-01-28T06:11:35.406Z,99982.13
2023-01-28T06:14:04.417Z,99986.19
2023-01-28T06:16:52.382Z,99991.75
2023-01-28T06:19:38.124Z,99999.66
2023-01-28T06:22:06.415Z,99996.44
2023-01-28T06:24:33.635Z,99999.78
2023-01-28T06:27:00.607Z,100000.63
2023-01-28T06:29:27.751Z,99995.06
2023-01-28T06:31:55.399Z,99992.19
2023-01-28T06:34:23.181Z,99995.06
2023-01-28T06:36:51.213Z,99990.78
2023-01-28T06:39:18.236Z,99989.78
2023-01-28T06:41:45.182Z,99977.41
2023-01-28T06:44:12.488Z,99990.78
2023-01-28T06:46:40.082Z,99994.13
2023-01-28T06:49:07.193Z,99992.63
2023-01-28T06:51:34.314Z,100001.00
2023-01-28T06:54:01.662Z,99999.25
2023-01-28T06:56:35.868Z,100007.75
2023-01-28T06:59:03.145Z,99994.63
2023-01-28T07:01:30.166Z,100014.97
2023-01-28T07:03:57.753Z,100006.72
2023-01-28T07:06:24.874Z,100004.94
2023-01-28T07:08:51.961Z,100012.31
2023-01-28T07:11:19.105Z,100015.28
2023-01-28T07:13:47.601Z,100005.31
2023-01-28T07:16:14.846Z,100010.59
2023-01-28T07:18:44.256Z,100013.22
2023-01-28T07:21:11.287Z,100016.84
2023-01-28T07:23:40.235Z,100019.28
2023-01-28T07:26:07.335Z,100016.72
2023-01-28T07:28:34.380Z,100016.91
2023-01-28T07:31:01.421Z,100023.44
2023-01-28T07:33:28.682Z,100019.97
2023-01-28T07:35:55.627Z,100011.13
2023-01-28T07:38:22.741Z,100020.88
2023-01-28T07:40:50.446Z,99997.06
2023-01-28T07:43:17.400Z,100008.53
2023-01-28T07:45:45.848Z,100001.28
2023-01-28T07:48:15.505Z,100025.25
2023-01-28T07:50:42.618Z,100021.09
2023-01-28T07:53:11.579Z,99998.88
2023-01-28T07:55:41.478Z,100021.13
2023-01-28T07:58:09.860Z,100005.56
2023-01-28T08:00:37.599Z,100026.38
2023-01-28T08:03:13.800Z,100019.97
2023-01-28T08:05:51.944Z,100009.59
2023-01-28T08:08:19.150Z,100022.19
2023-01-28T08:10:46.592Z,100022.84
2023-01-28T08:13:14.705Z,100023.28
2023-01-28T08:15:42.173Z,100022.75
2023-01-28T08:18:13.358Z,100018.56
2023-01-28T08:20:41.653Z,100020.66
2023-01-28T08:23:11.522Z,100001.56
2023-01-28T08:25:39.373Z,100017.72
2023-01-28T08:28:07.127Z,99996.81
2023-01-28T08:30:34.589Z,100005.19
2023-01-28T08:33:01.744Z,100028.59
2023-01-28T08:35:29.142Z,100000.78
2023-01-28T08:37:56.650Z,100021.53
2023-01-28T08:40:24.675Z,100030.13
2023-01-28T08:42:53.049Z,100027.81
2023-01-28T08:46:09.188Z,100007.47
2023-01-28T08:48:38.565Z,100028.63
2023-01-28T08:51:05.730Z,100021.31
2023-01-28T08:53:32.740Z,100003.38
2023-01-28T08:55:59.719Z,100001.63
2023-01-28T08:58:26.761Z,100008.06
2023-01-28T09:00:53.729Z,100010.75
2023-01-28T09:03:20.637Z,100010.91
2023-01-28T09:05:49.685Z,99998.25
2023-01-28T09:08:19.919Z,100004.69
2023-01-28T09:10:46.886Z,100003.16
2023-01-28T09:13:15.704Z,99995.53
2023-01-28T09:15:43.138Z,99992.47
2023-01-28T09:18:10.296Z,99982.84
2023-01-28T09:20:39.667Z,99987.16
2023-01-28T09:23:07.478Z,99990.25
2023-01-28T09:25:36.305Z,99992.38
2023-01-28T09:28:04.157Z,99992.69
2023-01-28T09:30:38.678Z,99993.63
2023-01-28T09:33:08.122Z,99997.97
2023-01-28T09:35:36.196Z,99999.19
2023-01-28T09:38:03.737Z,100000.41
2023-01-28T09:44:58.318Z,100002.66
2023-01-28T09:47:53.156Z,99984.19
2023-01-28T09:50:39.621Z,99994.09
2023-01-28T09:53:18.543Z,99995.22
2023-01-28T09:56:01.552Z,99992.56
2023-01-28T09:58:29.991Z,99981.13
2023-01-28T10:01:12.639Z,99994.91
2023-01-28T10:04:17.636Z,99975.84
2023-01-28T10:06:56.607Z,99981.56
2023-01-28T10:09:38.477Z,99974.34
2023-01-28T10:12:39.524Z,99969.91
2023-01-28T10:15:28.592Z,99967.25
2023-01-28T10:18:15.977Z,99946.50
2023-01-28T10:20:49.399Z,99967.09
2023-01-28T10:23:19.020Z,99960.41
2023-01-28T10:25:48.414Z,99951.66
2023-01-28T10:28:24.433Z,99953.47
2023-01-28T10:30:52.016Z,99957.22
2023-01-28T10:33:19.039Z,99944.94
2023-01-28T10:35:46.066Z,99954.84
2023-01-28T10:38:19.968Z,99953.47
2023-01-28T10:40:48.443Z,99946.66
2023-01-28T10:43:21.533Z,99947.75
2023-01-28T10:46:17.856Z,99946.06
2023-01-28T10:49:39.695Z,99945.53
2023-01-28T10:52:21.510Z,99942.31
2023-01-28T10:55:09.601Z,99926.72
2023-01-28T10:57:48.373Z,99921.56
2023-01-28T11:01:08.152Z,99926.16
2023-01-28T11:03:42.826Z,99915.03
2023-01-28T11:06:25.092Z,99926.72
2023-01-28T11:09:40.569Z,99915.72
2023-01-28T11:12:28.556Z,99907.22
2023-01-28T11:14:58.912Z,99912.94
2023-01-28T11:17:35.338Z,99919.88
2023-01-28T11:20:20.275Z,99912.50
2023-01-28T11:22:47.301Z,99920.59
2023-01-28T11:25:20.311Z,99916.97
2023-01-28T11:27:49.195Z,99915.44
2023-01-28T11:30:22.238Z,99923.38
2023-01-28T11:33:02.475Z,99929.25
2023-01-28T11:35:31.963Z,99925.78
2023-01-28T11:37:59.997Z,99921.47
2023-01-28T11:40:27.752Z,99917.16
2023-01-28T11:42:59.343Z,99914.50
2023-01-28T11:45:38.334Z,99912.56
2023-01-28T11:48:23.632Z,99904.47
2023-01-28T11:50:52.409Z,99909.50
2023-01-28T11:53:26.127Z,99908.22
2023-01-28T11:55:59.236Z,99898.22
2023-01-28T11:58:32.407Z,99904.03
2023-01-28T12:01:08.484Z,99895.16
2023-01-28T12:03:50.069Z,99888.75
2023-01-28T12:06:40.373Z,99879.69
2023-01-28T12:09:13.460Z,99882.34
2023-01-28T12:12:10.949Z,99874.97
2023-01-28T12:14:59.955Z,99870.66
2023-01-28T12:17:26.947Z,99869.25
2023-01-28T12:20:29.905Z,99870.53
2023-01-28T12:23:12.821Z,99876.66
2023-01-28T12:25:40.768Z,99872.75
2023-01-28T12:28:39.074Z,99878.59
2023-01-28T12:31:51.228Z,99875.81
2023-01-28T12:34:50.692Z,99867.72
2023-01-28T12:37:29.359Z,99858.69
2023-01-28T12:40:39.745Z,99861.06
2023-01-28T12:43:18.913Z,99854.13
2023-01-28T12:45:49.438Z,99854.38
2023-01-28T12:48:27.780Z,99868.59
2023-01-28T12:51:00.804Z,99857.03
2023-01-28T12:53:40.013Z,99867.34
2023-01-28T12:56:11.761Z,99865.38
2023-01-28T12:58:52.628Z,99872.19
2023-01-28T13:01:25.349Z,99867.47
2023-01-28T13:04:07.245Z,99858.84
2023-01-28T13:06:40.980Z,99855.50
2023-01-28T13:09:17.129Z,99851.88
2023-01-28T13:11:44.715Z,99858.59
2023-01-28T13:14:12.549Z,99848.41
2023-01-28T13:19:19.307Z,99857.59
2023-01-28T13:21:50.735Z,99840.06
2023-01-28T13:24:17.843Z,99846.88
2023-01-28T13:26:55.661Z,99853.84
2023-01-28T13:29:25.488Z,99852.47
2023-01-28T13:31:54.787Z,99846.06
2023-01-28T13:34:29.177Z,99855.09
2023-01-28T13:36:58.080Z,99851.34
2023-01-28T13:39:26.802Z,99854.94
2023-01-28T13:42:18.389Z,99840.19
2023-01-28T13:44:45.440Z,99838.66
2023-01-28T13:47:19.194Z,99831.16
2023-01-28T13:49:55.676Z,99837.00
2023-01-28T13:52:29.423Z,99836.31
2023-01-28T13:55:30.360Z,99840.34
2023-01-28T13:58:36.974Z,99839.63
2023-01-28T14:01:18.905Z,99836.00
2023-01-28T14:03:56.181Z,99839.47
2023-01-28T14:06:41.320Z,99830.88
2023-01-28T14:09:27.243Z,99822.69
2023-01-28T14:12:05.928Z,99824.22
2023-01-28T14:14:51.502Z,99832.84
2023-01-28T14:17:27.259Z,99821.88
2023-01-28T14:19:55.333Z,99822.00
2023-01-28T14:22:22.451Z,99822.00
2023-01-28T14:24:49.933Z,99803.78
2023-01-28T14:27:40.075Z,99798.91
2023-01-28T14:30:29.531Z,99812.94
2023-01-28T14:32:56.639Z,99814.88
2023-01-28T14:35:34.459Z,99802.91
2023-01-28T14:38:08.146Z,99808.19
2023-01-28T14:41:13.830Z,99812.41
2023-01-28T14:43:41.207Z,99804.88
2023-01-28T14:46:49.572Z,99809.88
2023-01-28T14:49:27.235Z,99818.78
2023-01-28T14:52:06.410Z,99813.38
2023-01-28T14:55:21.566Z,99811.41
2023-01-28T14:57:55.733Z,99798.75
2023-01-28T15:00:31.629Z,99816.00
2023-01-28T15:03:24.179Z,99809.19
2023-01-28T15:06:05.541Z,99802.78
2023-01-28T15:08:32.693Z,99791.09
2023-01-28T15:11:35.075Z,99793.19
2023-01-28T15:14:15.559Z,99793.19
2023-01-28T15:16:49.191Z,99783.34
2023-01-28T15:19:18.074Z,99781.94
2023-01-28T15:21:46.310Z,99783.34
2023-01-28T15:24:16.483Z,99790.69
2023-01-28T15:26:48.002Z,99784.59
2023-01-28T15:29:34.800Z,99776.25
2023-01-28T15:32:19.777Z,99775.13
2023-01-28T15:34:46.863Z,99787.34
2023-01-28T15:37:20.357Z,99790.56
2023-01-28T15:39:48.381Z,99775.81
2023-01-28T15:42:22.579Z,99783.59
2023-01-28T15:44:50.551Z,99787.78
2023-01-28T15:47:30.759Z,99785.94
2023-01-28T15:50:04.944Z,99777.31
2023-01-28T15:52:48.550Z,99788.75
2023-01-28T15:55:39.888Z,99786.34
2023-01-28T15:58:20.146Z,99780.94
2023-01-28T16:00:48.685Z,99784.56
2023-01-28T16:03:22.036Z,99789.00
2023-01-28T16:05:59.492Z,99783.16
2023-01-28T16:08:41.149Z,99772.88
2023-01-28T16:11:58.883Z,99769.16
2023-01-28T16:20:29.137Z,99768.72
2023-01-28T16:23:27.790Z,99766.09
2023-01-28T16:26:22.719Z,99746.72
2023-01-28T16:28:51.229Z,99744.22
2023-01-28T16:31:19.011Z,99741.88
2023-01-28T16:33:51.660Z,99764.09
2023-01-28T16:36:22.093Z,99744.78
2023-01-28T16:38:52.077Z,99755.94
2023-01-28T16:41:26.937Z,99740.34
2023-01-28T16:43:58.039Z,99756.34
2023-01-28T16:46:28.549Z,99747.03
2023-01-28T16:48:55.793Z,99733.56
2023-01-28T16:51:23.156Z,99724.78
2023-01-28T16:57:27.092Z,99725.75
2023-01-28T17:02:41.466Z,99748.97
2023-01-28T17:05:40.485Z,99733.69
2023-01-28T17:13:47.379Z,99717.53
2023-01-28T17:16:17.390Z,99721.16
2023-01-28T17:27:04.676Z,99724.53
2023-01-28T17:35:39.470Z,99731.44
2023-01-28T17:43:35.728Z,99740.75
2023-01-28T17:46:21.060Z,99720.47
2023-01-28T17:49:04.232Z,99706.00
2023-01-28T18:03:17.024Z,99715.88
2023-01-28T18:05:45.699Z,99692.09
2023-01-28T18:08:22.443Z,99705.59
2023-01-28T18:10:53.798Z,99721.28
2023-01-28T18:13:20.759Z,99715.88
2023-01-28T18:15:50.733Z,99711.72
2023-01-28T18:18:17.742Z,99712.97
2023-01-28T18:20:44.706Z,99712.00
2023-01-28T18:23:11.616Z,99706.72
2023-01-28T18:25:38.641Z,99704.63
2023-01-28T18:28:05.839Z,99701.16
2023-01-28T18:30:33.441Z,99705.59
2023-01-28T18:33:04.404Z,99705.31
2023-01-28T18:35:33.843Z,99696.56
2023-01-28T18:38:07.073Z,99689.34
2023-01-28T18:40:34.694Z,99682.13
2023-01-28T18:43:02.167Z,99690.19
2023-01-28T18:45:41.011Z,99696.00
2023-01-28T18:50:53.767Z,99680.44
2023-01-28T18:53:22.300Z,99687.00
2023-01-28T18:58:40.396Z,99677.28
2023-01-28T19:01:12.974Z,99678.38
2023-01-28T19:03:40.783Z,99663.34
2023-01-28T19:06:35.743Z,99674.91
2023-01-28T19:09:08.501Z,99668.94
2023-01-28T19:11:39.246Z,99657.13
2023-01-28T19:14:14.458Z,99653.78
2023-01-28T19:16:41.986Z,99645.31
2023-01-28T19:19:17.376Z,99653.94
2023-01-28T19:21:58.566Z,99658.66
2023-01-28T19:24:46.897Z,99645.72
2023-01-28T19:29:58.967Z,99657.25
2023-01-28T19:32:33.036Z,99663.06
2023-01-28T19:38:41.156Z,99668.34
2023-01-28T19:41:12.657Z,99644.31
2023-01-28T19:46:30.712Z,99657.13
2023-01-28T19:52:04.325Z,99660.31
2023-01-28T19:54:37.570Z,99640.19
2023-01-28T19:57:12.905Z,99665.03
2023-01-28T20:02:23.305Z,99636.97
2023-01-28T20:05:00.640Z,99628.50
2023-01-28T20:07:44.768Z,99631.28
2023-01-28T20:10:14.944Z,99623.38
2023-01-28T20:12:42.117Z,99628.66
2023-01-28T20:15:10.444Z,99636.69
2023-01-28T20:17:41.782Z,99627.41
2023-01-28T20:20:19.167Z,99634.75
2023-01-28T20:22:53.446Z,99632.53
2023-01-28T20:25:20.795Z,99631.59
2023-01-28T20:27:56.253Z,99624.22
2023-01-28T20:30:34.633Z,99625.59
2023-01-28T20:38:26.725Z,99607.25
2023-01-28T20:40:54.114Z,99602.00
2023-01-28T20:43:24.528Z,99604.50
2023-01-28T20:45:53.012Z,99603.09
2023-01-28T20:48:22.402Z,99603.69
2023-01-28T20:50:52.167Z,99600.34
2023-01-28T20:53:19.203Z,99610.91
2023-01-28T20:55:59.696Z,99599.38
2023-01-28T20:58:27.287Z,99594.25
2023-01-28T21:23:04.397Z,99588.38
2023-01-28T21:25:32.994Z,99574.91
2023-01-28T21:28:07.170Z,99569.78
2023-01-28T21:30:40.176Z,99574.66
2023-01-28T21:35:51.492Z,99549.25
2023-01-28T21:38:18.838Z,99575.63
2023-01-28T21:43:29.197Z,99553.28
2023-01-28T21:45:57.365Z,99562.31
2023-01-28T21:48:29.663Z,99558.69
2023-01-28T21:51:22.674Z,99557.03
2023-01-28T21:53:51.821Z,99554.81
2023-01-28T21:56:20.115Z,99541.47
2023-01-28T21:59:05.785Z,99555.34
2023-01-28T22:01:32.841Z,99543.97
2023-01-28T22:04:00.592Z,99543.44
2023-01-28T22:06:57.407Z,99542.31
2023-01-28T22:09:26.401Z,99532.59
2023-01-28T22:11:55.651Z,99539.25
2023-01-28T22:14:24.462Z,99546.75
2023-01-28T22:16:52.871Z,99538.16
2023-01-28T22:19:21.003Z,99526.34
2023-01-28T22:21:48.856Z,99535.91
2023-01-28T22:24:22.669Z,99525.91
2023-01-28T22:26:50.140Z,99519.94
2023-01-28T22:29:19.002Z,99528.41
2023-01-28T22:31:50.841Z,99514.53
2023-01-28T22:34:18.339Z,99507.84
2023-01-28T22:36:49.554Z,99518.97
2023-01-28T22:39:18.611Z,99492.03
2023-01-28T22:41:45.729Z,99505.22
2023-01-28T22:44:12.877Z,99495.38
2023-01-28T22:46:40.680Z,99497.88
2023-01-28T22:49:08.080Z,99475.13
2023-01-28T22:51:42.183Z,99484.41
2023-01-28T22:54:15.261Z,99474.38
2023-01-28T22:56:44.873Z,99490.06
2023-01-28T22:59:12.817Z,99482.03
2023-01-28T23:01:46.034Z,99475.75
2023-01-28T23:04:15.992Z,99468.84
2023-01-28T23:06:43.263Z,99465.50
2023-01-28T23:09:13.350Z,99460.25
2023-01-28T23:11:40.402Z,99460.78
2023-01-28T23:14:27.879Z,99473.94
2023-01-28T23:17:13.958Z,99467.03
2023-01-28T23:20:08.703Z,99459.53
2023-01-28T23:22:59.382Z,99453.75
2023-01-28T23:25:26.559Z,99459.41
2023-01-28T23:27:53.465Z,99460.66
2023-01-28T23:30:25.415Z,99456.22
2023-01-28T23:33:02.809Z,99453.16
2023-01-28T23:35:33.451Z,99437.94
2023-01-28T23:38:07.577Z,99445.13
2023-01-28T23:40:34.667Z,99441.41
2023-01-28T23:43:01.636Z,99447.09
2023-01-28T23:45:28.670Z,99441.97
2023-01-28T23:47:57.185Z,99444.72
2023-01-28T23:50:26.736Z,99431.69
2023-01-28T23:52:53.656Z,99441.28
2023-01-28T23:55:20.622Z,99442.91
2023-01-28T23:57:47.581Z,99435.72
